Time;durP1;ratioP1;P1;durP2;ratioP2;P2;SDS_P1;SDS_P2;PMS_P1;PMS_P2;Temp;Humidity;BMP_temperature;BMP_pressure;BME280_temperature;BME280_humidity;BME280_pressure;Samples;Min_cycle;Max_cycle;Signal;HPM_P1;HPM_P2
2022/05/13 00:01:13;;;;;;;10.95;1.80;;;;;;;17.70;31.63;101022.16;5076646;28;20128;-69
2022/05/13 00:03:40;;;;;;;8.98;1.90;;;;;;;17.79;31.52;101019.09;5075018;28;20047;-70
2022/05/13 00:06:07;;;;;;;6.80;2.03;;;;;;;17.84;31.28;101018.50;5076884;28;20074;-69
2022/05/13 00:08:34;;;;;;;5.82;1.50;;;;;;;17.80;31.58;101023.47;5077057;28;20536;-70
2022/05/13 00:11:02;;;;;;;5.85;1.70;;;;;;;17.41;32.17;101023.25;5074040;28;20123;-70
2022/05/13 00:13:29;;;;;;;5.60;1.65;;;;;;;17.64;31.85;101031.09;5075647;28;20503;-70
2022/05/13 00:15:56;;;;;;;6.82;1.83;;;;;;;17.28;32.54;101032.91;5075600;28;20087;-69
2022/05/13 00:18:23;;;;;;;8.77;1.80;;;;;;;17.54;32.09;101035.00;5075490;28;20055;-69
2022/05/13 00:20:50;;;;;;;8.60;1.50;;;;;;;17.40;32.42;101024.28;5070326;28;20578;-69
2022/05/13 00:23:17;;;;;;;14.60;2.35;;;;;;;17.39;32.32;101028.84;5076823;28;20104;-69
2022/05/13 00:25:43;;;;;;;6.55;2.05;;;;;;;17.18;32.72;101023.47;5075243;28;20518;-69
2022/05/13 00:28:10;;;;;;;5.47;2.42;;;;;;;17.16;32.74;101022.81;5076872;28;20075;-69
2022/05/13 00:30:39;;;;;;;5.15;1.50;;;;;;;17.07;33.17;101020.25;5071836;28;20067;-69
2022/05/13 00:33:06;;;;;;;5.13;2.00;;;;;;;17.38;32.60;101019.06;5076211;28;20045;-69
2022/05/13 00:35:32;;;;;;;6.90;2.20;;;;;;;17.29;32.27;101017.50;5077174;28;20056;-69
2022/05/13 00:37:59;;;;;;;7.88;2.22;;;;;;;17.19;32.75;101019.69;5077434;28;20139;-70
2022/05/13 00:40:26;;;;;;;4.70;2.20;;;;;;;17.10;33.14;101019.84;5077676;28;20045;-69
2022/05/13 00:42:58;;;;;;;5.38;1.90;;;;;;;17.13;32.86;101021.34;5078212;28;20049;-69
2022/05/13 00:45:25;;;;;;;3.63;1.52;;;;;;;17.11;32.84;101024.22;5076017;28;20068;-69
2022/05/13 00:47:52;;;;;;;4.95;2.58;;;;;;;17.30;32.64;101025.44;5075775;28;20566;-69
2022/05/13 00:50:20;;;;;;;10.25;2.03;;;;;;;17.54;32.18;101029.56;5074391;28;20127;-69
2022/05/13 00:52:49;;;;;;;5.03;1.70;;;;;;;17.32;32.48;101022.53;5075286;28;20049;-69
2022/05/13 00:55:30;;;;;;;8.77;1.77;;;;;;;17.26;32.49;101029.56;5076826;28;20400;-69
2022/05/13 00:57:58;;;;;;;4.43;2.28;;;;;;;17.16;32.90;101017.38;5076795;28;20044;-69
2022/05/13 01:00:25;;;;;;;6.28;2.15;;;;;;;17.14;33.23;101017.59;5075492;28;20059;-69
2022/05/13 01:02:51;;;;;;;4.20;1.50;;;;;;;17.13;33.18;101011.34;5075695;28;20056;-69
2022/05/13 01:08:58;;;;;;;5.18;1.75;;;;;;;16.78;33.72;101013.13;5072699;28;20106;-70
2022/05/13 01:11:28;;;;;;;4.32;1.85;;;;;;;17.08;33.13;101016.50;5074074;28;20500;-70
2022/05/13 01:14:02;;;;;;;5.28;1.77;;;;;;;17.03;33.28;101005.41;5076220;28;20567;-70
2022/05/13 01:16:29;;;;;;;7.60;1.48;;;;;;;17.03;33.46;101007.28;5066274;28;20045;-70
2022/05/13 01:18:55;;;;;;;9.60;2.45;;;;;;;16.96;33.93;101009.09;5076638;28;20044;-70
2022/05/13 01:21:26;;;;;;;4.78;1.67;;;;;;;16.98;33.94;101010.56;5077410;28;20097;-70
2022/05/13 01:23:53;;;;;;;4.70;1.80;;;;;;;16.74;34.37;101016.41;5074987;28;20476;-69
2022/05/13 01:26:25;;;;;;;5.32;1.98;;;;;;;16.89;33.94;101018.00;5073969;28;20110;-70
2022/05/13 01:28:55;;;;;;;5.95;1.50;;;;;;;16.97;34.03;101018.91;5061964;28;20108;-70
2022/05/13 01:31:26;;;;;;;4.85;1.85;;;;;;;16.98;33.71;101007.84;5072329;28;20417;-70
2022/05/13 01:33:53;;;;;;;6.55;2.15;;;;;;;16.80;34.05;101018.34;5072044;28;20048;-70
2022/05/13 01:36:21;;;;;;;9.50;1.95;;;;;;;16.74;34.47;101021.81;5072533;28;20054;-70
2022/05/13 01:38:48;;;;;;;5.63;1.85;;;;;;;16.84;34.29;101017.75;5073048;28;20095;-70
2022/05/13 01:41:16;;;;;;;8.02;1.95;;;;;;;16.83;34.27;101015.25;5073451;28;20075;-70
2022/05/13 01:43:44;;;;;;;3.75;1.73;;;;;;;16.81;34.56;101017.28;5072449;28;20131;-70
2022/05/13 01:46:12;;;;;;;4.70;2.10;;;;;;;16.76;34.64;101017.06;5074651;28;20067;-70
2022/05/13 01:48:39;;;;;;;6.15;2.50;;;;;;;16.81;34.54;101011.88;5073300;28;20048;-70
2022/05/13 01:51:06;;;;;;;4.93;1.80;;;;;;;16.80;34.78;101012.91;5072230;28;20044;-70
2022/05/13 01:53:33;;;;;;;4.90;2.20;;;;;;;16.75;34.92;101018.94;5073039;28;20131;-70
2022/05/13 01:55:59;;;;;;;6.72;2.25;;;;;;;16.47;35.93;101013.41;5074600;28;20128;-70
2022/05/13 01:58:32;;;;;;;5.32;2.20;;;;;;;16.72;35.00;101011.19;5073977;28;20075;-70
2022/05/13 02:00:59;;;;;;;4.65;2.20;;;;;;;16.60;35.62;101005.41;5074601;28;20560;-70
2022/05/13 02:03:45;;;;;;;4.75;2.20;;;;;;;16.54;35.88;101005.34;5073817;28;20051;-69
2022/05/13 02:06:19;;;;;;;11.05;2.20;;;;;;;16.61;35.71;101012.53;5075883;28;20047;-69
2022/05/13 02:08:46;;;;;;;6.57;2.53;;;;;;;16.48;36.35;101000.69;5075684;28;20468;-69
2022/05/13 02:11:13;;;;;;;8.02;3.13;;;;;;;16.59;35.98;101001.03;5076033;28;20045;-69
2022/05/13 02:13:40;;;;;;;7.60;2.50;;;;;;;16.52;36.21;100996.59;5076240;28;20040;-69
2022/05/13 02:16:07;;;;;;;4.03;2.20;;;;;;;16.61;36.04;100990.88;5075869;28;20064;-69
2022/05/13 02:18:34;;;;;;;4.82;2.25;;;;;;;16.25;36.70;100996.28;5077992;28;20108;-69
2022/05/13 02:21:00;;;;;;;9.20;2.50;;;;;;;16.55;36.26;100997.06;5074963;28;20044;-69
2022/05/13 02:23:27;;;;;;;4.57;2.65;;;;;;;16.46;36.24;100990.03;5074889;28;20068;-69
2022/05/13 02:25:59;;;;;;;9.00;3.13;;;;;;;16.47;36.55;100994.44;5073472;28;20048;-70
2022/05/13 02:28:26;;;;;;;5.75;3.00;;;;;;;16.40;36.59;100993.50;5073577;28;20581;-70
2022/05/13 02:30:53;;;;;;;6.50;2.90;;;;;;;16.38;36.64;100990.16;5072784;28;20094;-70
2022/05/13 02:33:19;;;;;;;4.93;2.92;;;;;;;16.35;36.64;100987.84;5072364;28;20480;-70
2022/05/13 02:35:46;;;;;;;10.23;3.03;;;;;;;16.44;36.43;100989.41;5074477;28;20086;-70
2022/05/13 02:38:15;;;;;;;9.65;2.45;;;;;;;16.44;36.78;100992.13;5075378;28;20123;-70
2022/05/13 02:43:27;;;;;;;10.63;3.00;;;;;;;16.46;36.55;100987.34;5076993;28;20052;-70
2022/05/13 02:45:54;;;;;;;8.65;2.95;;;;;;;16.47;36.84;100999.88;5074638;28;20475;-70
2022/05/13 02:48:21;;;;;;;8.50;3.08;;;;;;;16.37;37.11;100989.34;5075005;28;20088;-70
2022/05/13 02:50:47;;;;;;;7.70;3.47;;;;;;;16.36;37.00;101001.19;5074196;28;20067;-69
2022/05/13 02:53:14;;;;;;;7.13;3.03;;;;;;;16.33;37.25;100993.47;5073602;28;20127;-69
2022/05/13 02:55:41;;;;;;;7.90;3.38;;;;;;;16.19;37.70;100987.06;5073775;28;20147;-69
2022/05/13 02:58:07;;;;;;;6.32;2.55;;;;;;;16.26;37.62;100988.97;5072724;28;20076;-69
2022/05/13 03:00:34;;;;;;;5.93;2.97;;;;;;;16.21;37.81;100989.56;5071490;28;20055;-69
2022/05/13 03:03:01;;;;;;;5.32;2.75;;;;;;;16.12;37.88;100991.53;5072485;28;20048;-70
2022/05/13 03:05:29;;;;;;;7.07;3.45;;;;;;;16.06;38.16;100984.19;5072829;28;20481;-70
2022/05/13 03:07:57;;;;;;;7.35;3.00;;;;;;;16.13;37.81;100984.28;5066211;28;20428;-70
2022/05/13 03:10:23;;;;;;;8.65;2.90;;;;;;;16.06;38.44;100986.91;5072902;28;20110;-70
2022/05/13 03:12:50;;;;;;;8.38;3.53;;;;;;;16.02;38.46;100980.19;5068886;28;20117;-69
2022/05/13 03:15:17;;;;;;;7.32;3.20;;;;;;;16.03;38.35;100981.03;5075669;28;20127;-69
2022/05/13 03:17:44;;;;;;;8.30;2.97;;;;;;;16.11;38.20;100979.03;5068732;28;20060;-69
2022/05/13 03:20:15;;;;;;;9.35;3.40;;;;;;;16.03;38.19;100981.88;5075054;28;20044;-70
2022/05/13 03:22:48;;;;;;;7.78;3.85;;;;;;;16.09;38.20;100975.69;5074316;28;20048;-70
2022/05/13 03:25:15;;;;;;;6.28;2.90;;;;;;;15.68;38.91;100984.34;5077038;28;20068;-70
2022/05/13 03:27:42;;;;;;;6.32;3.30;;;;;;;15.65;38.94;100990.13;5075537;28;20045;-70
2022/05/13 03:30:12;;;;;;;6.70;3.00;;;;;;;15.75;38.61;100987.13;5075103;28;20104;-70
2022/05/13 03:32:39;;;;;;;5.43;3.33;;;;;;;15.59;38.92;100985.44;5074825;28;20040;-70
2022/05/13 03:35:09;;;;;;;7.22;3.88;;;;;;;15.62;38.67;100984.22;5072638;28;20439;-70
2022/05/13 03:37:35;;;;;;;6.38;3.28;;;;;;;15.71;38.64;100989.38;5074747;28;20044;-70
2022/05/13 03:40:03;;;;;;;5.47;3.13;;;;;;;15.77;38.45;100985.06;5073727;28;20064;-70
2022/05/13 03:42:30;;;;;;;7.80;3.35;;;;;;;15.57;39.00;100979.38;5070940;28;20055;-70
2022/05/13 03:44:56;;;;;;;5.78;3.42;;;;;;;15.78;38.36;100981.34;5058454;28;20440;-70
2022/05/13 03:47:23;;;;;;;7.10;3.90;;;;;;;15.72;38.55;100974.00;5073180;28;20075;-70
2022/05/13 03:49:49;;;;;;;9.90;3.42;;;;;;;15.86;38.25;100981.25;5072851;28;20110;-69
2022/05/13 03:52:17;;;;;;;8.40;3.53;;;;;;;15.90;38.39;100982.53;5075022;28;20112;-69
2022/05/13 03:54:43;;;;;;;5.45;3.30;;;;;;;15.54;39.01;100976.22;5073228;28;20052;-69
2022/05/13 03:57:10;;;;;;;10.18;3.47;;;;;;;15.66;38.95;100975.56;5072559;28;20072;-69
2022/05/13 03:59:37;;;;;;;6.15;3.75;;;;;;;15.79;38.68;100968.66;5073536;28;20057;-71
2022/05/13 04:02:04;;;;;;;8.38;3.30;;;;;;;15.90;38.19;100981.69;5072754;28;20075;-70
2022/05/13 04:08:56;;;;;;;9.25;3.15;;;;;;;15.75;38.55;100973.63;5075374;28;20051;-70
2022/05/13 04:10:06;;;;;;;7.97;3.60;;;;;;;15.77;38.69;100989.63;5076304;28;20400;-70
2022/05/13 04:18:04;;;;;;;6.95;3.17;;;;;;;16.03;37.98;100981.88;5075153;28;20068;-70
2022/05/13 04:20:32;;;;;;;10.80;5.85;;;;;;;16.01;38.05;100974.97;5066826;28;20487;-70
2022/05/13 04:22:58;;;;;;;10.52;4.68;;;;;;;15.75;38.26;100979.03;5076594;28;20075;-70
2022/05/13 04:25:26;;;;;;;8.13;4.40;;;;;;;15.78;38.21;100973.25;5076435;28;20100;-70
2022/05/13 04:27:52;;;;;;;9.10;3.90;;;;;;;15.77;38.22;100965.28;5075879;28;20049;-69
2022/05/13 04:30:19;;;;;;;11.35;4.10;;;;;;;15.64;38.47;100965.94;5077177;28;20100;-69
2022/05/13 04:32:45;;;;;;;7.43;4.30;;;;;;;15.63;38.59;100964.28;5075333;28;20076;-69
2022/05/13 04:35:12;;;;;;;11.98;4.15;;;;;;;15.55;38.63;100965.19;5074386;28;20098;-69
2022/05/13 04:37:38;;;;;;;17.77;3.92;;;;;;;15.74;38.24;100965.66;5073246;28;20048;-69
2022/05/13 04:40:05;;;;;;;8.10;3.90;;;;;;;15.95;37.95;100969.28;5073221;28;20051;-69
2022/05/13 04:42:50;;;;;;;10.65;4.43;;;;;;;15.65;38.01;100963.06;5075179;28;20044;-69
2022/05/13 04:45:25;;;;;;;8.32;4.05;;;;;;;15.49;38.81;100969.47;5076591;28;20103;-69
2022/05/13 04:48:16;;;;;;;8.55;4.18;;;;;;;15.76;38.01;100971.75;5075935;28;20481;-69
2022/05/13 04:50:50;;;;;;;10.55;4.22;;;;;;;15.85;38.06;100960.63;5075116;28;20454;-69
2022/05/13 04:53:29;;;;;;;10.57;4.30;;;;;;;16.20;37.59;100963.53;5076219;28;20048;-69
2022/05/13 04:55:57;;;;;;;19.38;5.18;;;;;;;15.71;38.13;100970.44;5074106;28;20044;-69
2022/05/13 04:58:23;;;;;;;11.80;4.35;;;;;;;16.00;37.51;100966.00;5078161;28;20058;-69
2022/05/13 05:00:53;;;;;;;11.77;4.43;;;;;;;16.04;37.75;100969.16;5075020;28;20040;-69
2022/05/13 05:03:22;;;;;;;8.57;4.25;;;;;;;16.25;37.42;100979.19;5074767;28;20465;-69
2022/05/13 05:05:57;;;;;;;9.77;4.22;;;;;;;16.53;36.82;100974.72;5075236;28;20060;-70
2022/05/13 05:08:24;;;;;;;13.38;4.45;;;;;;;16.30;37.26;100977.59;5071740;28;20048;-69
2022/05/13 05:10:50;;;;;;;12.05;4.70;;;;;;;16.36;36.99;100981.41;5075533;28;20076;-69
2022/05/13 05:13:37;;;;;;;10.07;4.95;;;;;;;16.52;36.70;100981.19;5074224;28;20131;-69
2022/05/13 05:16:06;;;;;;;6.68;4.07;;;;;;;16.53;36.71;100974.72;5071257;28;20563;-69
2022/05/13 05:18:34;;;;;;;8.82;4.68;;;;;;;16.49;36.86;100969.88;5075041;28;20056;-69
2022/05/13 05:21:01;;;;;;;9.90;4.20;;;;;;;16.24;37.26;100977.53;5073556;28;20208;-69
2022/05/13 05:23:30;;;;;;;8.35;4.07;;;;;;;16.43;37.04;100983.13;5072270;28;20110;-69
2022/05/13 05:25:57;;;;;;;9.75;4.38;;;;;;;16.39;36.99;100981.00;5073229;28;20079;-69
2022/05/13 05:28:28;;;;;;;16.67;5.28;;;;;;;16.42;37.20;100975.22;5074613;28;20082;-69
2022/05/13 05:30:57;;;;;;;13.95;4.65;;;;;;;16.71;36.64;100976.13;5075440;28;20067;-69
2022/05/13 05:33:23;;;;;;;15.07;4.68;;;;;;;16.34;37.14;100969.94;5074377;28;20127;-69
2022/05/13 05:35:50;;;;;;;11.68;4.65;;;;;;;15.92;37.48;100968.84;5076492;28;20076;-69
2022/05/13 05:38:16;;;;;;;8.20;4.10;;;;;;;16.84;36.19;100965.41;5075068;28;20062;-69
2022/05/13 05:40:43;;;;;;;9.52;4.50;;;;;;;16.40;37.05;100959.19;5073354;28;20080;-69
2022/05/13 05:43:12;;;;;;;13.57;4.93;;;;;;;16.64;36.57;100963.41;5074984;28;20068;-69
2022/05/13 05:45:40;;;;;;;8.52;4.32;;;;;;;16.94;35.93;100967.81;5072647;28;20064;-69
2022/05/13 05:48:13;;;;;;;13.10;5.10;;;;;;;16.73;36.93;100960.53;5074780;28;20054;-69
2022/05/13 05:50:39;;;;;;;11.95;4.28;;;;;;;16.65;36.54;100970.47;5074719;28;20064;-69
2022/05/13 05:53:06;;;;;;;8.07;4.05;;;;;;;17.18;35.59;100955.69;5075334;28;20072;-69
2022/05/13 05:58:18;;;;;;;10.55;4.43;;;;;;;17.16;35.79;100957.75;5075677;28;20131;-69
2022/05/13 06:00:48;;;;;;;13.52;4.72;;;;;;;17.00;36.35;100965.16;5074468;28;20068;-70
2022/05/13 06:03:15;;;;;;;13.88;4.40;;;;;;;17.50;35.50;100968.63;5074927;28;20045;-69
2022/05/13 06:05:44;;;;;;;10.25;4.60;;;;;;;17.00;36.07;100962.44;5075821;28;20086;-69
2022/05/13 06:08:10;;;;;;;19.38;5.15;;;;;;;17.69;34.57;100967.06;5074303;28;20071;-70
2022/05/13 06:10:37;;;;;;;13.45;5.03;;;;;;;17.41;35.26;100961.72;5076103;28;20044;-69
2022/05/13 06:13:07;;;;;;;8.80;4.70;;;;;;;17.67;34.73;100960.16;5075059;28;20135;-69
2022/05/13 06:15:34;;;;;;;11.60;4.75;;;;;;;17.38;35.03;100953.97;5077403;28;20074;-70
2022/05/13 06:18:00;;;;;;;10.45;4.70;;;;;;;17.42;35.52;100957.94;5077846;28;20056;-69
2022/05/13 06:20:30;;;;;;;16.95;6.93;;;;;;;17.78;34.39;100959.59;5075570;28;20471;-69
2022/05/13 06:22:57;;;;;;;13.00;5.45;;;;;;;17.60;34.73;100968.28;5073064;28;20542;-69
2022/05/13 06:25:24;;;;;;;12.10;4.47;;;;;;;18.45;33.69;100961.50;5072745;28;20131;-69
2022/05/13 06:27:53;;;;;;;10.95;4.88;;;;;;;18.58;33.51;100965.25;5073704;28;20501;-70
2022/05/13 06:30:25;;;;;;;14.70;5.28;;;;;;;18.40;33.62;100964.00;5073780;28;20041;-69
2022/05/13 06:32:53;;;;;;;12.30;4.57;;;;;;;18.36;33.68;100961.91;5072185;28;20040;-70
2022/05/13 06:35:21;;;;;;;12.23;4.22;;;;;;;19.00;32.87;100959.47;5072895;28;20068;-69
2022/05/13 06:37:48;;;;;;;13.45;5.07;;;;;;;19.23;32.29;100977.22;5075218;28;20044;-70
2022/05/13 06:40:14;;;;;;;11.57;4.57;;;;;;;18.98;32.46;100968.88;5072765;28;20048;-70
2022/05/13 06:42:42;;;;;;;10.05;5.30;;;;;;;19.38;32.09;100969.66;5074464;28;20060;-70
2022/05/13 06:45:09;;;;;;;11.00;5.20;;;;;;;19.72;31.44;100968.53;5075914;28;20044;-70
2022/05/13 06:47:36;;;;;;;9.63;4.38;;;;;;;19.63;31.65;100967.09;5076677;28;20103;-69
2022/05/13 06:50:05;;;;;;;8.93;3.67;;;;;;;20.23;30.97;100975.00;5075287;28;20071;-70
2022/05/13 06:52:32;;;;;;;12.32;4.50;;;;;;;20.69;30.42;100973.91;5074101;28;20044;-69
2022/05/13 06:55:08;;;;;;;9.23;4.45;;;;;;;20.53;30.05;100966.28;5075227;28;20068;-69
2022/05/13 06:57:34;;;;;;;9.48;4.53;;;;;;;21.04;29.57;100965.22;5072088;28;20474;-69
2022/05/13 07:00:01;;;;;;;17.08;4.63;;;;;;;21.37;28.89;100965.75;5070845;28;20508;-69
2022/05/13 07:02:29;;;;;;;8.38;4.15;;;;;;;20.63;30.03;100956.56;5075251;28;20041;-70
2022/05/13 07:04:55;;;;;;;16.33;4.82;;;;;;;21.61;28.87;100957.75;5075660;28;20045;-69
2022/05/13 07:07:22;;;;;;;21.27;4.82;;;;;;;20.74;29.33;100955.00;5076170;28;20048;-70
2022/05/13 07:09:49;;;;;;;15.35;4.80;;;;;;;21.00;29.04;100956.66;5077884;28;20044;-69
2022/05/13 07:12:16;;;;;;;13.15;5.13;;;;;;;21.01;29.05;100954.75;5072778;28;20045;-69
2022/05/13 07:14:42;;;;;;;10.18;4.40;;;;;;;21.55;28.33;100953.19;5072205;28;20056;-69
2022/05/13 07:17:09;;;;;;;14.32;4.65;;;;;;;21.13;28.61;100953.00;5075679;28;20143;-70
2022/05/13 07:19:35;;;;;;;8.55;4.60;;;;;;;22.38;27.15;100954.44;5075376;28;20049;-70
2022/05/13 07:22:02;;;;;;;12.15;4.32;;;;;;;23.02;26.77;100958.28;5058508;28;20132;-69
2022/05/13 07:24:29;;;;;;;12.25;3.85;;;;;;;23.13;26.59;100946.53;5074932;28;20488;-69
2022/05/13 07:26:55;;;;;;;18.60;5.07;;;;;;;22.79;26.47;100962.63;5074238;28;20499;-69
2022/05/13 07:29:22;;;;;;;10.45;4.82;;;;;;;21.81;27.68;100963.00;5073179;28;20086;-69
2022/05/13 07:31:48;;;;;;;7.88;4.03;;;;;;;21.60;28.19;100969.72;5073702;28;20463;-70
2022/05/13 07:34:15;;;;;;;10.90;4.32;;;;;;;21.24;28.73;100957.72;5072642;28;20048;-70
2022/05/13 07:36:42;;;;;;;10.45;4.50;;;;;;;21.34;28.60;100965.38;5073019;28;20040;-69
2022/05/13 07:41:54;;;;;;;12.77;5.55;;;;;;;20.78;29.12;100964.41;5079288;28;20051;-69
2022/05/13 07:44:20;;;;;;;15.75;4.72;;;;;;;21.08;29.18;100972.75;5078205;28;20135;-69
2022/05/13 07:46:47;;;;;;;12.57;4.93;;;;;;;21.52;28.42;100984.50;5076547;28;20060;-68
2022/05/13 07:49:15;;;;;;;8.90;5.22;;;;;;;21.19;29.12;100979.41;5079756;28;20056;-68
2022/05/13 07:51:42;;;;;;;13.00;5.10;;;;;;;21.92;28.36;100980.50;5076546;28;20381;-67
2022/05/13 07:54:08;;;;;;;11.85;5.63;;;;;;;21.56;28.71;100984.88;5077322;28;20399;-67
2022/05/13 07:56:35;;;;;;;11.13;5.50;;;;;;;21.80;28.47;100989.44;5074564;28;20045;-68
2022/05/13 07:59:02;;;;;;;14.05;6.30;;;;;;;21.06;29.30;100985.75;5075347;28;20108;-69
2022/05/13 08:01:29;;;;;;;14.15;6.13;;;;;;;21.03;29.39;100985.38;5075936;28;20045;-68
2022/05/13 08:03:56;;;;;;;15.43;5.90;;;;;;;20.75;29.64;100975.75;5078384;28;20074;-68
2022/05/13 08:06:23;;;;;;;13.48;5.78;;;;;;;20.51;30.24;100985.56;5077652;28;20041;-69
2022/05/13 08:08:55;;;;;;;15.75;5.97;;;;;;;20.27;30.35;100987.13;5074646;28;20067;-68
2022/05/13 08:11:24;;;;;;;15.18;6.15;;;;;;;20.22;30.21;100992.41;5075586;28;20049;-69
2022/05/13 08:13:52;;;;;;;12.05;6.18;;;;;;;21.02;28.92;100979.09;5073291;28;20143;-68
2022/05/13 08:16:21;;;;;;;10.82;5.40;;;;;;;20.87;29.65;100982.16;5075796;28;20128;-67
2022/05/13 08:18:49;;;;;;;15.02;4.82;;;;;;;20.47;30.15;100978.06;5071746;28;20123;-68
2022/05/13 08:21:15;;;;;;;11.52;5.53;;;;;;;20.66;30.05;100964.28;5074141;28;20045;-68
2022/05/13 08:23:42;;;;;;;14.35;5.32;;;;;;;20.52;30.44;100972.75;5075140;28;20138;-68
2022/05/13 08:26:09;;;;;;;12.30;5.13;;;;;;;20.23;30.62;100980.47;5075903;28;20044;-69
2022/05/13 08:28:35;;;;;;;15.48;5.93;;;;;;;19.87;31.42;100979.19;5074388;28;20556;-69
2022/05/13 08:31:02;;;;;;;14.35;4.75;;;;;;;20.10;30.74;100986.81;5074772;28;20055;-69
2022/05/13 08:33:28;;;;;;;13.65;5.97;;;;;;;20.10;30.61;100983.25;5074765;28;20461;-69
2022/05/13 08:35:58;;;;;;;14.57;6.10;;;;;;;19.88;30.99;100983.56;5073871;28;20555;-69
2022/05/13 08:38:28;;;;;;;14.18;5.75;;;;;;;20.09;31.02;100995.22;5073602;28;20541;-69
2022/05/13 08:41:08;;;;;;;12.48;6.10;;;;;;;19.74;31.65;100990.13;5074931;28;20139;-69
2022/05/13 08:43:40;;;;;;;11.55;5.63;;;;;;;19.65;31.97;100988.63;5070706;28;20132;-69
2022/05/13 08:46:14;;;;;;;;;;;;;;;20.20;31.27;100999.97;5075266;28;20071;-69
2022/05/13 08:49:12;;;;;;;12.07;5.57;;;;;;;20.00;31.55;100996.50;5072325;28;19920;-69
2022/05/13 08:53:06;;;;;;;13.90;6.00;;;;;;;19.93;31.96;101004.69;5071598;28;20525;-68
2022/05/13 08:54:53;;;;;;;15.65;6.30;;;;;;;19.60;32.53;101002.06;5076706;28;20123;-69
2022/05/13 08:57:24;;;;;;;12.23;6.05;;;;;;;20.12;31.76;100989.34;5077393;28;20071;-69
2022/05/13 09:00:22;;;;;;;15.70;5.88;;;;;;;20.23;31.33;100990.53;5075943;28;20068;-69
2022/05/13 09:02:57;;;;;;;13.05;5.88;;;;;;;20.92;30.37;100989.66;5050986;28;20040;-68
2022/05/13 09:06:01;;;;;;;14.60;5.05;;;;;;;21.00;30.00;100988.53;5076892;28;20048;-69
2022/05/13 09:08:37;;;;;;;13.07;5.13;;;;;;;21.75;29.11;100978.34;5074903;28;20048;-68
2022/05/13 09:11:24;;;;;;;11.98;5.05;;;;;;;21.04;29.79;100989.75;5076508;28;20095;-68
2022/05/13 09:14:10;;;;;;;12.18;4.90;;;;;;;22.02;28.30;100991.72;5073778;28;20048;-68
2022/05/13 09:17:01;;;;;;;14.63;4.40;;;;;;;21.79;27.87;100986.94;5057548;28;20049;-67
2022/05/13 09:19:35;;;;;;;9.40;4.87;;;;;;;21.41;28.15;100981.69;5076887;28;20132;-68
2022/05/13 09:22:07;;;;;;;13.27;4.13;;;;;;;21.93;26.92;100987.63;5073266;28;20049;-69
2022/05/13 09:24:34;;;;;;;9.90;3.35;;;;;;;22.00;26.12;100977.44;5064622;28;20079;-69
2022/05/13 09:27:00;;;;;;;13.00;3.95;;;;;;;22.79;25.48;100970.84;5074820;28;20131;-69
2022/05/13 09:29:39;;;;;;;12.90;3.13;;;;;;;23.54;24.99;100969.34;5075320;28;20068;-68
2022/05/13 09:32:11;;;;;;;17.10;3.75;;;;;;;22.94;24.88;100977.75;5074850;28;20488;-69
2022/05/13 09:34:49;;;;;;;13.68;2.92;;;;;;;23.26;24.31;100972.78;5075773;28;20048;-68
2022/05/13 09:37:23;;;;;;;9.80;2.80;;;;;;;22.52;24.75;100973.16;5074182;28;20174;-67
2022/05/13 09:40:05;;;;;;;11.75;3.15;;;;;;;22.52;24.91;100977.81;5074492;28;20072;-68
2022/05/13 09:42:41;;;;;;;19.70;2.90;;;;;;;22.19;25.08;100973.63;5074723;28;20109;-68
2022/05/13 09:45:22;;;;;;;13.55;2.85;;;;;;;22.78;24.48;100977.41;5074147;28;20051;-68
2022/05/13 09:48:03;;;;;;;18.40;2.78;;;;;;;22.32;25.19;100970.72;5070783;28;20127;-69
2022/05/13 09:50:39;;;;;;;12.45;2.67;;;;;;;22.26;25.62;100962.63;5075066;28;20067;-69
2022/05/13 09:53:20;;;;;;;17.70;2.90;;;;;;;21.75;26.51;100966.59;5075091;28;20496;-68
2022/05/13 09:55:53;;;;;;;10.40;3.15;;;;;;;21.74;26.42;100967.69;5073078;28;20083;-70
2022/05/13 09:58:27;;;;;;;14.75;3.50;;;;;;;22.01;26.14;100965.47;5074452;28;20123;-68
2022/05/13 10:00:58;;;;;;;11.85;3.13;;;;;;;21.46;27.09;100968.19;5074557;28;20123;-69
2022/05/13 10:03:29;;;;;;;10.13;3.08;;;;;;;21.91;26.36;100962.44;5066618;28;20040;-69
2022/05/13 10:06:17;;;;;;;9.68;2.95;;;;;;;21.23;27.30;100964.22;5075273;28;20045;-70
2022/05/13 10:14:40;;;;;;;15.55;3.10;;;;;;;22.03;26.70;100957.88;5073007;28;20044;-70
2022/05/13 10:17:22;;;;;;;10.77;3.10;;;;;;;23.07;24.97;100947.44;5073639;28;20045;-69
2022/05/13 10:20:11;;;;;;;7.07;3.03;;;;;;;23.59;24.23;100954.91;5068933;28;20102;-69
2022/05/13 10:22:46;;;;;;;10.50;3.72;;;;;;;23.10;24.89;100938.75;5076274;28;20076;-69
2022/05/13 10:25:29;;;;;;;14.13;6.47;;;;;;;23.78;24.11;100936.41;5078622;28;20047;-69
2022/05/13 10:28:17;;;;;;;14.18;3.35;;;;;;;22.73;25.64;100936.22;5075375;28;20172;-69
2022/05/13 10:31:25;;;;;;;11.75;3.28;;;;;;;21.94;27.00;100942.84;5076374;28;20036;-69
2022/05/13 10:34:16;;;;;;;10.05;3.10;;;;;;;23.08;24.74;100938.16;4975611;28;20139;-68
2022/05/13 10:36:48;;;;;;;9.90;2.72;;;;;;;22.74;25.60;100946.13;4973127;28;20050;-70
2022/05/13 10:39:23;;;;;;;14.95;3.22;;;;;;;22.89;25.25;100944.81;4977414;28;20069;-69
2022/05/13 10:41:54;;;;;;;8.27;2.78;;;;;;;23.01;25.20;100945.66;4973829;28;20184;-68
2022/05/13 10:44:23;;;;;;;13.45;3.10;;;;;;;22.85;24.95;100954.56;4974388;28;20066;-69
2022/05/13 10:47:00;;;;;;;11.77;2.65;;;;;;;22.49;25.88;100950.94;4972561;28;20134;-69
2022/05/13 10:49:38;;;;;;;13.00;2.55;;;;;;;22.23;25.94;100949.41;4975779;28;20050;-70
2022/05/13 10:52:08;;;;;;;15.68;4.05;;;;;;;22.87;25.31;100952.41;4975568;28;20070;-69
2022/05/13 10:54:43;;;;;;;6.53;2.05;;;;;;;23.15;24.81;100944.34;4974669;28;20110;-70
2022/05/13 10:57:40;;;;;;;12.27;2.25;;;;;;;23.64;24.07;100944.91;4976384;28;20039;-70
2022/05/13 11:00:14;;;;;;;10.65;2.50;;;;;;;23.25;24.71;100946.50;4974406;28;20122;-70
2022/05/13 11:02:58;;;;;;;9.85;2.10;;;;;;;23.01;23.94;100938.25;4974520;28;20078;-68
2022/05/13 11:05:45;;;;;;;14.43;2.47;;;;;;;22.13;25.10;100947.22;4975379;28;20046;-69
2022/05/13 11:08:31;;;;;;;10.95;2.38;;;;;;;22.80;24.41;100942.41;5039792;28;20036;-68
2022/05/13 11:11:19;;;;;;;9.77;2.45;;;;;;;22.93;23.86;100935.91;5074159;28;20075;-69
2022/05/13 11:13:59;;;;;;;8.90;1.88;;;;;;;22.31;24.80;100951.81;5070431;28;20048;-69
2022/05/13 11:16:44;;;;;;;15.52;2.33;;;;;;;22.17;25.01;100958.53;5079387;28;20553;-68
2022/05/13 11:19:37;;;;;;;11.52;2.00;;;;;;;22.14;24.25;100946.16;5077648;28;20119;-69
2022/05/13 11:22:22;;;;;;;9.05;1.63;;;;;;;22.24;24.65;100943.69;5043263;28;20061;-68
2022/05/13 11:28:19;;;;;;;8.15;2.10;;;;;;;22.43;23.79;100946.34;5033946;28;20053;-69
2022/05/13 11:31:00;;;;;;;9.70;2.28;;;;;;;23.84;22.12;100938.19;5052822;28;20068;-68
2022/05/13 11:33:31;;;;;;;;;;;;;;;23.18;23.25;100934.84;5047208;28;20048;-68
2022/05/13 11:36:14;;;;;;;8.25;1.98;;;;;;;23.44;22.27;100936.25;5060070;28;19921;-70
2022/05/13 11:39:09;;;;;;;9.43;2.17;;;;;;;23.08;22.38;100946.34;5061398;28;20045;-72
2022/05/13 11:41:58;;;;;;;8.30;1.80;;;;;;;22.34;23.22;100951.34;5057427;28;20053;-71
2022/05/13 11:45:25;;;;;;;12.57;2.33;;;;;;;21.66;23.51;100954.31;5059290;28;20044;-73
2022/05/13 11:48:13;;;;;;;14.10;2.50;;;;;;;21.54;23.74;100948.78;5059213;28;20040;-72
2022/05/13 11:50:40;;;;;;;14.73;2.30;;;;;;;21.88;23.62;100949.25;5041020;28;20121;-73
2022/05/13 11:53:06;;;;;;;15.60;2.25;;;;;;;22.04;23.58;100962.25;5061225;28;20072;-72
2022/05/13 11:55:42;;;;;;;11.18;2.28;;;;;;;21.13;25.18;100964.75;5062002;28;20040;-70
2022/05/13 11:58:47;;;;;;;9.18;2.40;;;;;;;21.70;24.39;100967.31;5059906;28;20436;-72
2022/05/13 12:01:39;;;;;;;12.35;2.55;;;;;;;21.03;25.36;100966.28;5055306;28;20041;-70
2022/05/13 12:04:12;;;;;;;9.65;2.70;;;;;;;21.00;24.97;100955.81;5060427;28;20040;-72
2022/05/13 12:06:51;;;;;;;12.75;2.80;;;;;;;21.01;25.04;100965.66;5059422;28;20041;-71
2022/05/13 12:09:28;;;;;;;12.40;2.47;;;;;;;21.36;24.19;100963.28;5060024;28;20049;-70
2022/05/13 12:11:57;;;;;;;13.13;2.47;;;;;;;21.73;23.68;100961.34;5058768;28;20068;-73